Big Bear Station Historical Data
Daily Summary for April 20, 2019 Units:  Both    English   Metric
Next Day »
Daily Weekly Monthly Yearly Custom
  High: Low: Average:
Temperature: 63.0 °F /  17.2 °C 37.6 °F /  3.1 °C 48.5 °F /  9.2 °C
Dew Point: 34.6 °F /  1.4 °C 14.0 °F /  -10 °C 26.7 °F /  -2.9 °C
Humidity: 71% 18% 45%
Wind Speed: 8.9mph /  14.3km/h - 2.1mph /  3.4km/h
Wind Gust: -999.0mph /  -1607.7km/h - -
Wind- - West
Pressure: 23.45 in /  794 hPa 23.39 in /  792 hPa -
Precipitation: 0.00 in /  0 mm    
Historical Graphs
 
 
Tabular Data for April 20, 2019
Time Temperature Dew Point Pressure Wind Wind Speed Wind Gust Humidity Rainfall Rate (Hourly)
00:04 46.8 °F /  8.2 °C 30.6 °F /  -0.8 °C 23.45in /  794hPa Calm   -999.0mph /  -1607.7km/h 53% 0.00in /  0mm
00:19 47.1 °F /  8.4 °C 29.9 °F /  -1.2 °C 23.44in /  793.7hPa Calm   -999.0mph /  -1607.7km/h 51% 0.00in /  0mm
00:34 46.8 °F /  8.2 °C 30.1 °F /  -1.1 °C 23.44in /  793.7hPa Calm   -999.0mph /  -1607.7km/h 52% 0.00in /  0mm
00:49 46.6 °F /  8.1 °C 29.4 °F /  -1.4 °C 23.44in /  793.7hPa Calm   -999.0mph /  -1607.7km/h 51% 0.00in /  0mm
01:04 46.2 °F /  7.9 °C 29.1 °F /  -1.6 °C 23.43in /  793.3hPa Calm   -999.0mph /  -1607.7km/h 51% 0.00in /  0mm
01:20 45.9 °F /  7.7 °C 29.3 °F /  -1.5 °C 23.43in /  793.3hPa Calm   -999.0mph /  -1607.7km/h 52% 0.00in /  0mm
01:35 45.7 °F /  7.6 °C 29.5 °F /  -1.4 °C 23.42in /  793hPa Calm   -999.0mph /  -1607.7km/h 53% 0.00in /  0mm
01:50 45.5 °F /  7.5 °C 29.8 °F /  -1.2 °C 23.42in /  793hPa Calm   -999.0mph /  -1607.7km/h 54% 0.00in /  0mm
02:05 45.9 °F /  7.7 °C 29.7 °F /  -1.3 °C 23.41in /  792.7hPa Calm   -999.0mph /  -1607.7km/h 53% 0.00in /  0mm
02:20 46.2 °F /  7.9 °C 29.1 °F /  -1.6 °C 23.41in /  792.7hPa NNW 1.1mph /  1.8km/h -999.0mph /  -1607.7km/h 51% 0.00in /  0mm
02:36 46.0 °F /  7.8 °C 33.3 °F /  0.7 °C 23.41in /  792.7hPa NNW 4.7mph /  7.6km/h -999.0mph /  -1607.7km/h 61% 0.00in /  0mm
02:51 45.7 °F /  7.6 °C 30.9 °F /  -0.6 °C 23.41in /  792.7hPa Calm   -999.0mph /  -1607.7km/h 56% 0.00in /  0mm
03:06 45.0 °F /  7.2 °C 28.4 °F /  -2 °C 23.40in /  792.3hPa Calm   -999.0mph /  -1607.7km/h 52% 0.00in /  0mm
03:21 45.0 °F /  7.2 °C 29.3 °F /  -1.5 °C 23.40in /  792.3hPa NNE 2.7mph /  4.3km/h -999.0mph /  -1607.7km/h 54% 0.00in /  0mm
03:37 44.8 °F /  7.1 °C 28.2 °F /  -2.1 °C 23.40in /  792.3hPa Calm   -999.0mph /  -1607.7km/h 52% 0.00in /  0mm
03:52 44.8 °F /  7.1 °C 26.8 °F /  -2.9 °C 23.40in /  792.3hPa Calm   -999.0mph /  -1607.7km/h 49% 0.00in /  0mm
04:07 43.9 °F /  6.6 °C 28.3 °F /  -2.1 °C 23.40in /  792.3hPa Calm   -999.0mph /  -1607.7km/h 54% 0.00in /  0mm
04:22 43.2 °F /  6.2 °C 27.7 °F /  -2.4 °C 23.39in /  792hPa Calm   -999.0mph /  -1607.7km/h 54% 0.00in /  0mm
04:37 41.9 °F /  5.5 °C 26.9 °F /  -2.8 °C 23.39in /  792hPa Calm   -999.0mph /  -1607.7km/h 55% 0.00in /  0mm
04:53 41.5 °F /  5.3 °C 25.6 °F /  -3.6 °C 23.39in /  792hPa Calm   -999.0mph /  -1607.7km/h 53% 0.00in /  0mm
05:08 41.4 °F /  5.2 °C 25.5 °F /  -3.6 °C 23.39in /  792hPa Calm   -999.0mph /  -1607.7km/h 53% 0.00in /  0mm
05:23 40.5 °F /  4.7 °C 25.6 °F /  -3.6 °C 23.39in /  792hPa Calm   -999.0mph /  -1607.7km/h 55% 0.00in /  0mm
05:38 39.7 °F /  4.3 °C 25.7 °F /  -3.5 °C 23.39in /  792hPa Calm   -999.0mph /  -1607.7km/h 57% 0.00in /  0mm
05:53 39.6 °F /  4.2 °C 26.0 °F /  -3.3 °C 23.40in /  792.3hPa Calm   -999.0mph /  -1607.7km/h 58% 0.00in /  0mm
06:09 38.7 °F /  3.7 °C 24.8 °F /  -4 °C 23.40in /  792.3hPa Calm   -999.0mph /  -1607.7km/h 57% 0.00in /  0mm
06:24 38.1 °F /  3.4 °C 21.6 °F /  -5.8 °C 23.40in /  792.3hPa Calm   -999.0mph /  -1607.7km/h 51% 0.00in /  0mm
06:39 37.6 °F /  3.1 °C 20.6 °F /  -6.3 °C 23.40in /  792.3hPa Calm   -999.0mph /  -1607.7km/h 50% 0.00in /  0mm
06:54 37.8 °F /  3.2 °C 20.8 °F /  -6.2 °C 23.40in /  792.3hPa Calm   -999.0mph /  -1607.7km/h 50% 0.00in /  0mm
07:10 37.8 °F /  3.2 °C 23.9 °F /  -4.5 °C 23.40in /  792.3hPa Calm   -999.0mph /  -1607.7km/h 57% 0.00in /  0mm
07:25 38.5 °F /  3.6 °C 27.0 °F /  -2.8 °C 23.41in /  792.7hPa Calm   -999.0mph /  -1607.7km/h 63% 0.00in /  0mm
07:40 41.2 °F /  5.1 °C 24.0 °F /  -4.4 °C 23.40in /  792.3hPa Calm   -999.0mph /  -1607.7km/h 50% 0.00in /  0mm
07:55 42.3 °F /  5.7 °C 20.8 °F /  -6.2 °C 23.40in /  792.3hPa Calm   -999.0mph /  -1607.7km/h 42% 0.00in /  0mm
08:10 46.2 °F /  7.9 °C 14.0 °F /  -10 °C 23.41in /  792.7hPa NW 3.7mph /  6km/h -999.0mph /  -1607.7km/h 27% 0.00in /  0mm
08:26 47.7 °F /  8.7 °C 19.3 °F /  -7.1 °C 23.41in /  792.7hPa ESE 3.2mph /  5.1km/h -999.0mph /  -1607.7km/h 32% 0.00in /  0mm
08:41 48.9 °F /  9.4 °C 20.3 °F /  -6.5 °C 23.41in /  792.7hPa North 1.7mph /  2.7km/h -999.0mph /  -1607.7km/h 32% 0.00in /  0mm
08:56 49.6 °F /  9.8 °C 20.9 °F /  -6.2 °C 23.41in /  792.7hPa NNW 3.7mph /  6km/h -999.0mph /  -1607.7km/h 32% 0.00in /  0mm
09:11 51.8 °F /  11 °C 16.1 °F /  -8.8 °C 23.41in /  792.7hPa South 1.7mph /  2.7km/h -999.0mph /  -1607.7km/h 24% 0.00in /  0mm
09:26 52.3 °F /  11.3 °C 22.5 °F /  -5.3 °C 23.42in /  793hPa NNW 3.7mph /  6km/h -999.0mph /  -1607.7km/h 31% 0.00in /  0mm
09:42 52.3 °F /  11.3 °C 24.0 °F /  -4.4 °C 23.42in /  793hPa NW 4.2mph /  6.8km/h -999.0mph /  -1607.7km/h 33% 0.00in /  0mm
09:57 52.3 °F /  11.3 °C 27.4 °F /  -2.6 °C 23.42in /  793hPa NW 5.3mph /  8.5km/h -999.0mph /  -1607.7km/h 38% 0.00in /  0mm
10:12 52.9 °F /  11.6 °C 26.0 °F /  -3.3 °C 23.42in /  793hPa NNW 3.7mph /  6km/h -999.0mph /  -1607.7km/h 35% 0.00in /  0mm
10:27 54.7 °F /  12.6 °C 26.1 °F /  -3.3 °C 23.42in /  793hPa NW 4.2mph /  6.8km/h -999.0mph /  -1607.7km/h 33% 0.00in /  0mm
10:42 56.3 °F /  13.5 °C 29.7 °F /  -1.3 °C 23.42in /  793hPa NNE 3.7mph /  6km/h -999.0mph /  -1607.7km/h 36% 0.00in /  0mm
10:58 58.5 °F /  14.7 °C 28.7 °F /  -1.8 °C 23.42in /  793hPa Calm   -999.0mph /  -1607.7km/h 32% 0.00in /  0mm
11:13 59.4 °F /  15.2 °C 27.1 °F /  -2.7 °C 23.42in /  793hPa NNW 5.3mph /  8.5km/h -999.0mph /  -1607.7km/h 29% 0.00in /  0mm
11:29 58.6 °F /  14.8 °C 27.2 °F /  -2.7 °C 23.42in /  793hPa NNE 3.2mph /  5.1km/h -999.0mph /  -1607.7km/h 30% 0.00in /  0mm
11:44 59.0 °F /  15 °C 25.9 °F /  -3.4 °C 23.43in /  793.3hPa NW 5.3mph /  8.5km/h -999.0mph /  -1607.7km/h 28% 0.00in /  0mm
12:00 60.6 °F /  15.9 °C 22.6 °F /  -5.2 °C 23.42in /  793hPa NNE 3.2mph /  5.1km/h -999.0mph /  -1607.7km/h 23% 0.00in /  0mm
12:15 60.6 °F /  15.9 °C 22.6 °F /  -5.2 °C 23.42in /  793hPa NNW 3.7mph /  6km/h -999.0mph /  -1607.7km/h 23% 0.00in /  0mm
12:30 60.8 °F /  16 °C 19.4 °F /  -7 °C 23.42in /  793hPa WNW 1.1mph /  1.8km/h -999.0mph /  -1607.7km/h 20% 0.00in /  0mm
12:45 62.2 °F /  16.8 °C 18.1 °F /  -7.7 °C 23.42in /  793hPa ENE 4.2mph /  6.8km/h -999.0mph /  -1607.7km/h 18% 0.00in /  0mm
13:01 61.3 °F /  16.3 °C 19.9 °F /  -6.7 °C 23.43in /  793.3hPa NW 4.7mph /  7.6km/h -999.0mph /  -1607.7km/h 20% 0.00in /  0mm
13:17 60.8 °F /  16 °C 24.7 °F /  -4.1 °C 23.43in /  793.3hPa North 4.2mph /  6.8km/h -999.0mph /  -1607.7km/h 25% 0.00in /  0mm
13:32 61.7 °F /  16.5 °C 28.2 °F /  -2.1 °C 23.42in /  793hPa NW 5.8mph /  9.3km/h -999.0mph /  -1607.7km/h 28% 0.00in /  0mm
13:47 63.0 °F /  17.2 °C 27.6 °F /  -2.4 °C 23.43in /  793.3hPa NNW 5.3mph /  8.5km/h -999.0mph /  -1607.7km/h 26% 0.00in /  0mm
14:02 62.4 °F /  16.9 °C 23.0 °F /  -5 °C 23.43in /  793.3hPa NW 4.7mph /  7.6km/h -999.0mph /  -1607.7km/h 22% 0.00in /  0mm
14:18 60.4 °F /  15.8 °C 28.8 °F /  -1.8 °C 23.42in /  793hPa North 6.3mph /  10.1km/h -999.0mph /  -1607.7km/h 30% 0.00in /  0mm
14:33 61.2 °F /  16.2 °C 24.1 °F /  -4.4 °C 23.42in /  793hPa NW 5.3mph /  8.5km/h -999.0mph /  -1607.7km/h 24% 0.00in /  0mm
14:48 59.2 °F /  15.1 °C 32.2 °F /  0.1 °C 23.42in /  793hPa NW 3.7mph /  6km/h -999.0mph /  -1607.7km/h 36% 0.00in /  0mm
15:03 59.9 °F /  15.5 °C 25.8 °F /  -3.4 °C 23.41in /  792.7hPa NNW 7.3mph /  11.7km/h -999.0mph /  -1607.7km/h 27% 0.00in /  0mm
15:18 59.4 °F /  15.2 °C 24.5 °F /  -4.2 °C 23.41in /  792.7hPa NW 5.3mph /  8.5km/h -999.0mph /  -1607.7km/h 26% 0.00in /  0mm
15:34 58.5 °F /  14.7 °C 28.0 °F /  -2.2 °C 23.41in /  792.7hPa WNW 2.2mph /  3.5km/h -999.0mph /  -1607.7km/h 31% 0.00in /  0mm
15:49 58.8 °F /  14.9 °C 27.4 °F /  -2.6 °C 23.40in /  792.3hPa NW 3.2mph /  5.1km/h -999.0mph /  -1607.7km/h 30% 0.00in /  0mm
16:04 59.0 °F /  15 °C 28.4 °F /  -2 °C 23.40in /  792.3hPa West 1.7mph /  2.7km/h -999.0mph /  -1607.7km/h 31% 0.00in /  0mm
16:19 57.2 °F /  14 °C 32.5 °F /  0.3 °C 23.40in /  792.3hPa WNW 4.7mph /  7.6km/h -999.0mph /  -1607.7km/h 39% 0.00in /  0mm
16:34 58.1 °F /  14.5 °C 29.1 °F /  -1.6 °C 23.40in /  792.3hPa ENE 3.7mph /  6km/h -999.0mph /  -1607.7km/h 33% 0.00in /  0mm
16:50 55.0 °F /  12.8 °C 27.8 °F /  -2.3 °C 23.40in /  792.3hPa North 5.3mph /  8.5km/h -999.0mph /  -1607.7km/h 35% 0.00in /  0mm
17:05 55.0 °F /  12.8 °C 27.1 °F /  -2.7 °C 23.40in /  792.3hPa NE 4.2mph /  6.8km/h -999.0mph /  -1607.7km/h 34% 0.00in /  0mm
17:20 55.4 °F /  13 °C 33.3 °F /  0.7 °C 23.40in /  792.3hPa NW 6.8mph /  10.9km/h -999.0mph /  -1607.7km/h 43% 0.00in /  0mm
17:35 55.2 °F /  12.9 °C 34.2 °F /  1.2 °C 23.40in /  792.3hPa NNW 2.7mph /  4.3km/h -999.0mph /  -1607.7km/h 45% 0.00in /  0mm
17:51 55.6 °F /  13.1 °C 34.6 °F /  1.4 °C 23.40in /  792.3hPa Calm   -999.0mph /  -1607.7km/h 45% 0.00in /  0mm
18:06 54.9 °F /  12.7 °C 29.1 °F /  -1.6 °C 23.40in /  792.3hPa NW 8.9mph /  14.3km/h -999.0mph /  -1607.7km/h 37% 0.00in /  0mm
18:21 53.1 °F /  11.7 °C 31.8 °F /  -0.1 °C 23.39in /  792hPa NW 6.3mph /  10.1km/h -999.0mph /  -1607.7km/h 44% 0.00in /  0mm
18:36 47.3 °F /  8.5 °C 32.4 °F /  0.2 °C 23.40in /  792.3hPa SSE 5.8mph /  9.3km/h -999.0mph /  -1607.7km/h 56% 0.00in /  0mm
18:52 45.5 °F /  7.5 °C 28.9 °F /  -1.7 °C 23.40in /  792.3hPa Calm   -999.0mph /  -1607.7km/h 52% 0.00in /  0mm
19:07 44.2 °F /  6.8 °C 30.4 °F /  -0.9 °C 23.40in /  792.3hPa WNW 2.2mph /  3.5km/h -999.0mph /  -1607.7km/h 58% 0.00in /  0mm
19:22 42.4 °F /  5.8 °C 31.5 °F /  -0.3 °C 23.39in /  792hPa NW 4.2mph /  6.8km/h -999.0mph /  -1607.7km/h 65% 0.00in /  0mm
19:37 41.5 °F /  5.3 °C 32.1 °F /  0.1 °C 23.39in /  792hPa WNW 2.7mph /  4.3km/h -999.0mph /  -1607.7km/h 69% 0.00in /  0mm
19:52 41.0 °F /  5 °C 29.8 °F /  -1.2 °C 23.39in /  792hPa NW 2.7mph /  4.3km/h -999.0mph /  -1607.7km/h 64% 0.00in /  0mm
20:08 41.0 °F /  5 °C 26.1 °F /  -3.3 °C 23.39in /  792hPa WNW 1.7mph /  2.7km/h -999.0mph /  -1607.7km/h 55% 0.00in /  0mm
20:23 40.6 °F /  4.8 °C 25.7 °F /  -3.5 °C 23.39in /  792hPa Calm   -999.0mph /  -1607.7km/h 55% 0.00in /  0mm
20:38 40.5 °F /  4.7 °C 25.6 °F /  -3.6 °C 23.39in /  792hPa North 1.7mph /  2.7km/h -999.0mph /  -1607.7km/h 55% 0.00in /  0mm
20:53 40.3 °F /  4.6 °C 22.6 °F /  -5.2 °C 23.39in /  792hPa WNW 3.7mph /  6km/h -999.0mph /  -1607.7km/h 49% 0.00in /  0mm
21:09 40.1 °F /  4.5 °C 22.9 °F /  -5.1 °C 23.40in /  792.3hPa Calm   -999.0mph /  -1607.7km/h 50% 0.00in /  0mm
21:24 39.4 °F /  4.1 °C 21.3 °F /  -5.9 °C 23.40in /  792.3hPa Calm   -999.0mph /  -1607.7km/h 48% 0.00in /  0mm
21:39 39.0 °F /  3.9 °C 22.9 °F /  -5.1 °C 23.40in /  792.3hPa SSW 2.2mph /  3.5km/h -999.0mph /  -1607.7km/h 52% 0.00in /  0mm
21:54 39.4 °F /  4.1 °C 23.7 °F /  -4.6 °C 23.40in /  792.3hPa Calm   -999.0mph /  -1607.7km/h 53% 0.00in /  0mm
22:09 39.9 °F /  4.4 °C 25.0 °F /  -3.9 °C 23.41in /  792.7hPa Calm   -999.0mph /  -1607.7km/h 55% 0.00in /  0mm
22:25 40.5 °F /  4.7 °C 26.9 °F /  -2.8 °C 23.41in /  792.7hPa Calm   -999.0mph /  -1607.7km/h 58% 0.00in /  0mm
22:40 40.1 °F /  4.5 °C 27.3 °F /  -2.6 °C 23.41in /  792.7hPa Calm   -999.0mph /  -1607.7km/h 60% 0.00in /  0mm
22:55 41.0 °F /  5 °C 31.6 °F /  -0.2 °C 23.40in /  792.3hPa Calm   -999.0mph /  -1607.7km/h 69% 0.00in /  0mm
23:10 41.0 °F /  5 °C 32.0 °F /  0 °C 23.40in /  792.3hPa NW 1.7mph /  2.7km/h -999.0mph /  -1607.7km/h 70% 0.00in /  0mm
23:25 40.3 °F /  4.6 °C 31.6 °F /  -0.2 °C 23.40in /  792.3hPa Calm   -999.0mph /  -1607.7km/h 71% 0.00in /  0mm
23:41 39.9 °F /  4.4 °C 31.3 °F /  -0.4 °C 23.40in /  792.3hPa Calm   -999.0mph /  -1607.7km/h 71% 0.00in /  0mm
23:56 39.2 °F /  4 °C 30.6 °F /  -0.8 °C 23.41in /  792.7hPa Calm   -999.0mph /  -1607.7km/h 71% 0.00in /  0mm
Big Bear CA Weather